sensor_id;sensor_type;location;lat;lon;timestamp;temperature;humidity
53748;DHT22;39655;53.210;5.768;2024-02-26T00:01:27;3.10;97.00
53748;DHT22;39655;53.210;5.768;2024-02-26T00:03:53;3.10;96.90
53748;DHT22;39655;53.210;5.768;2024-02-26T00:06:20;3.10;97.00
53748;DHT22;39655;53.210;5.768;2024-02-26T00:08:46;3.10;97.00
53748;DHT22;39655;53.210;5.768;2024-02-26T00:11:12;3.10;97.00
53748;DHT22;39655;53.210;5.768;2024-02-26T00:13:38;3.10;97.10
53748;DHT22;39655;53.210;5.768;2024-02-26T00:16:06;3.20;97.00
53748;DHT22;39655;53.210;5.768;2024-02-26T00:18:33;3.20;97.00
53748;DHT22;39655;53.210;5.768;2024-02-26T00:20:58;3.20;97.00
53748;DHT22;39655;53.210;5.768;2024-02-26T00:23:27;3.20;97.00
53748;DHT22;39655;53.210;5.768;2024-02-26T00:25:53;3.20;97.00
53748;DHT22;39655;53.210;5.768;2024-02-26T00:28:18;3.30;97.00
53748;DHT22;39655;53.210;5.768;2024-02-26T00:30:46;3.30;97.00
53748;DHT22;39655;53.210;5.768;2024-02-26T00:33:16;3.20;97.00
53748;DHT22;39655;53.210;5.768;2024-02-26T00:35:42;3.20;97.00
53748;DHT22;39655;53.210;5.768;2024-02-26T00:38:08;3.20;97.00
53748;DHT22;39655;53.210;5.768;2024-02-26T00:40:34;3.10;97.00
53748;DHT22;39655;53.210;5.768;2024-02-26T00:43:00;3.10;97.00
53748;DHT22;39655;53.210;5.768;2024-02-26T00:45:26;3.10;97.00
53748;DHT22;39655;53.210;5.768;2024-02-26T00:47:51;3.10;97.00
53748;DHT22;39655;53.210;5.768;2024-02-26T00:50:17;3.10;97.10
53748;DHT22;39655;53.210;5.768;2024-02-26T00:52:43;3.10;97.30
53748;DHT22;39655;53.210;5.768;2024-02-26T00:55:08;3.10;97.20
53748;DHT22;39655;53.210;5.768;2024-02-26T00:57:34;3.00;97.20
53748;DHT22;39655;53.210;5.768;2024-02-26T01:00:00;3.10;97.20
53748;DHT22;39655;53.210;5.768;2024-02-26T01:02:26;3.00;97.20
53748;DHT22;39655;53.210;5.768;2024-02-26T01:04:52;3.10;97.20
53748;DHT22;39655;53.210;5.768;2024-02-26T01:07:19;3.00;97.20
53748;DHT22;39655;53.210;5.768;2024-02-26T01:09:45;3.10;97.20
53748;DHT22;39655;53.210;5.768;2024-02-26T01:12:10;3.00;97.30
53748;DHT22;39655;53.210;5.768;2024-02-26T01:14:36;3.00;97.30
53748;DHT22;39655;53.210;5.768;2024-02-26T01:17:02;3.00;97.30
53748;DHT22;39655;53.210;5.768;2024-02-26T01:19:28;3.00;97.30
53748;DHT22;39655;53.210;5.768;2024-02-26T01:21:53;3.10;97.30
53748;DHT22;39655;53.210;5.768;2024-02-26T01:24:19;3.00;97.30
53748;DHT22;39655;53.210;5.768;2024-02-26T01:26:45;3.10;97.30
53748;DHT22;39655;53.210;5.768;2024-02-26T01:29:11;3.10;97.30
53748;DHT22;39655;53.210;5.768;2024-02-26T01:31:36;3.10;97.30
53748;DHT22;39655;53.210;5.768;2024-02-26T01:34:02;3.10;97.30
53748;DHT22;39655;53.210;5.768;2024-02-26T01:36:28;3.10;97.40
53748;DHT22;39655;53.210;5.768;2024-02-26T01:38:53;3.10;97.40
53748;DHT22;39655;53.210;5.768;2024-02-26T01:41:22;3.10;97.30
53748;DHT22;39655;53.210;5.768;2024-02-26T01:43:48;3.10;97.30
53748;DHT22;39655;53.210;5.768;2024-02-26T01:46:14;3.20;97.40
53748;DHT22;39655;53.210;5.768;2024-02-26T01:48:42;3.10;97.30
53748;DHT22;39655;53.210;5.768;2024-02-26T01:51:08;3.10;97.40
53748;DHT22;39655;53.210;5.768;2024-02-26T01:53:37;3.10;97.40
53748;DHT22;39655;53.210;5.768;2024-02-26T01:56:03;3.10;97.40
53748;DHT22;39655;53.210;5.768;2024-02-26T01:58:30;3.10;97.40
53748;DHT22;39655;53.210;5.768;2024-02-26T02:00:56;3.10;97.40
53748;DHT22;39655;53.210;5.768;2024-02-26T02:03:23;3.10;97.40
53748;DHT22;39655;53.210;5.768;2024-02-26T02:05:49;3.10;97.40
53748;DHT22;39655;53.210;5.768;2024-02-26T02:08:14;3.10;97.40
53748;DHT22;39655;53.210;5.768;2024-02-26T02:10:42;3.10;97.40
53748;DHT22;39655;53.210;5.768;2024-02-26T02:13:07;3.20;97.40
53748;DHT22;39655;53.210;5.768;2024-02-26T02:15:33;3.20;97.40
53748;DHT22;39655;53.210;5.768;2024-02-26T02:17:59;3.20;97.40
53748;DHT22;39655;53.210;5.768;2024-02-26T02:20:35;3.20;97.40
53748;DHT22;39655;53.210;5.768;2024-02-26T02:23:01;3.20;97.30
53748;DHT22;39655;53.210;5.768;2024-02-26T02:25:27;3.20;97.30
53748;DHT22;39655;53.210;5.768;2024-02-26T02:27:56;3.20;97.40
53748;DHT22;39655;53.210;5.768;2024-02-26T02:30:28;3.20;97.50
53748;DHT22;39655;53.210;5.768;2024-02-26T02:32:55;3.20;97.40
53748;DHT22;39655;53.210;5.768;2024-02-26T02:35:22;3.30;97.40
53748;DHT22;39655;53.210;5.768;2024-02-26T02:37:48;3.30;97.40
53748;DHT22;39655;53.210;5.768;2024-02-26T02:40:14;3.20;97.40
53748;DHT22;39655;53.210;5.768;2024-02-26T02:42:39;3.30;97.30
53748;DHT22;39655;53.210;5.768;2024-02-26T02:45:05;3.30;97.40
53748;DHT22;39655;53.210;5.768;2024-02-26T02:47:31;3.30;97.40
53748;DHT22;39655;53.210;5.768;2024-02-26T02:49:57;3.30;97.40
53748;DHT22;39655;53.210;5.768;2024-02-26T02:52:23;3.40;97.30
53748;DHT22;39655;53.210;5.768;2024-02-26T02:54:48;3.30;97.30
53748;DHT22;39655;53.210;5.768;2024-02-26T02:57:14;3.40;97.30
53748;DHT22;39655;53.210;5.768;2024-02-26T02:59:40;3.40;97.30
53748;DHT22;39655;53.210;5.768;2024-02-26T03:02:06;3.40;97.30
53748;DHT22;39655;53.210;5.768;2024-02-26T03:04:32;3.30;97.30
53748;DHT22;39655;53.210;5.768;2024-02-26T03:06:58;3.30;97.30
53748;DHT22;39655;53.210;5.768;2024-02-26T03:09:23;3.30;97.30
53748;DHT22;39655;53.210;5.768;2024-02-26T03:11:52;3.30;97.30
53748;DHT22;39655;53.210;5.768;2024-02-26T03:14:17;3.20;97.20
53748;DHT22;39655;53.210;5.768;2024-02-26T03:16:43;3.20;97.20
53748;DHT22;39655;53.210;5.768;2024-02-26T03:19:09;3.20;97.20
53748;DHT22;39655;53.210;5.768;2024-02-26T03:21:34;3.20;97.30
53748;DHT22;39655;53.210;5.768;2024-02-26T03:24:00;3.20;97.30
53748;DHT22;39655;53.210;5.768;2024-02-26T03:26:28;3.20;97.30
53748;DHT22;39655;53.210;5.768;2024-02-26T03:28:56;3.20;97.40
53748;DHT22;39655;53.210;5.768;2024-02-26T03:31:22;3.20;97.40
53748;DHT22;39655;53.210;5.768;2024-02-26T03:33:47;3.20;97.40
53748;DHT22;39655;53.210;5.768;2024-02-26T03:36:13;3.20;97.30
53748;DHT22;39655;53.210;5.768;2024-02-26T03:38:40;3.20;97.30
53748;DHT22;39655;53.210;5.768;2024-02-26T03:41:05;3.10;97.30
53748;DHT22;39655;53.210;5.768;2024-02-26T03:43:31;3.20;97.40
53748;DHT22;39655;53.210;5.768;2024-02-26T03:45:57;3.20;97.40
53748;DHT22;39655;53.210;5.768;2024-02-26T03:48:23;3.20;97.40
53748;DHT22;39655;53.210;5.768;2024-02-26T03:50:48;3.20;97.30
53748;DHT22;39655;53.210;5.768;2024-02-26T03:53:14;3.20;97.30
53748;DHT22;39655;53.210;5.768;2024-02-26T03:55:40;3.20;97.30
53748;DHT22;39655;53.210;5.768;2024-02-26T03:58:12;3.20;97.30
53748;DHT22;39655;53.210;5.768;2024-02-26T04:00:38;3.20;97.30
53748;DHT22;39655;53.210;5.768;2024-02-26T04:03:03;3.20;97.40
53748;DHT22;39655;53.210;5.768;2024-02-26T04:05:29;3.20;97.40
53748;DHT22;39655;53.210;5.768;2024-02-26T04:07:57;3.30;97.40
53748;DHT22;39655;53.210;5.768;2024-02-26T04:10:23;3.30;97.50
53748;DHT22;39655;53.210;5.768;2024-02-26T04:12:48;3.40;97.50
53748;DHT22;39655;53.210;5.768;2024-02-26T04:15:14;3.50;97.60
53748;DHT22;39655;53.210;5.768;2024-02-26T04:17:40;3.60;97.50
53748;DHT22;39655;53.210;5.768;2024-02-26T04:20:07;3.60;97.50
53748;DHT22;39655;53.210;5.768;2024-02-26T04:22:33;3.70;97.40
53748;DHT22;39655;53.210;5.768;2024-02-26T04:24:58;3.60;97.30
53748;DHT22;39655;53.210;5.768;2024-02-26T04:27:24;3.60;97.30
53748;DHT22;39655;53.210;5.768;2024-02-26T04:29:50;3.70;97.30
53748;DHT22;39655;53.210;5.768;2024-02-26T04:32:16;3.70;97.20
53748;DHT22;39655;53.210;5.768;2024-02-26T04:34:41;3.70;97.20
53748;DHT22;39655;53.210;5.768;2024-02-26T04:37:07;3.70;97.20
53748;DHT22;39655;53.210;5.768;2024-02-26T04:39:33;3.70;97.10
53748;DHT22;39655;53.210;5.768;2024-02-26T04:41:59;3.70;97.10
53748;DHT22;39655;53.210;5.768;2024-02-26T04:44:24;3.60;97.00
53748;DHT22;39655;53.210;5.768;2024-02-26T04:46:50;3.60;97.00
53748;DHT22;39655;53.210;5.768;2024-02-26T04:49:16;3.60;97.00
53748;DHT22;39655;53.210;5.768;2024-02-26T04:51:42;3.60;97.00
53748;DHT22;39655;53.210;5.768;2024-02-26T04:54:10;3.60;97.00
53748;DHT22;39655;53.210;5.768;2024-02-26T04:57:00;3.60;96.90
53748;DHT22;39655;53.210;5.768;2024-02-26T04:59:52;3.50;97.00
53748;DHT22;39655;53.210;5.768;2024-02-26T05:02:18;3.50;97.00
53748;DHT22;39655;53.210;5.768;2024-02-26T05:04:44;3.60;97.00
53748;DHT22;39655;53.210;5.768;2024-02-26T05:07:09;3.60;97.00
53748;DHT22;39655;53.210;5.768;2024-02-26T05:09:35;3.60;97.00
53748;DHT22;39655;53.210;5.768;2024-02-26T05:12:01;3.70;97.00
53748;DHT22;39655;53.210;5.768;2024-02-26T05:14:27;3.70;97.00
53748;DHT22;39655;53.210;5.768;2024-02-26T05:16:53;3.70;97.00
53748;DHT22;39655;53.210;5.768;2024-02-26T05:19:18;3.70;97.00
53748;DHT22;39655;53.210;5.768;2024-02-26T05:21:44;3.70;96.90
53748;DHT22;39655;53.210;5.768;2024-02-26T05:24:12;3.70;96.90
53748;DHT22;39655;53.210;5.768;2024-02-26T05:26:41;3.70;96.90
53748;DHT22;39655;53.210;5.768;2024-02-26T05:29:06;3.70;96.90
53748;DHT22;39655;53.210;5.768;2024-02-26T05:31:32;3.70;96.80
53748;DHT22;39655;53.210;5.768;2024-02-26T05:33:58;3.70;96.80
53748;DHT22;39655;53.210;5.768;2024-02-26T05:36:23;3.60;96.70
53748;DHT22;39655;53.210;5.768;2024-02-26T05:38:50;3.60;96.70
53748;DHT22;39655;53.210;5.768;2024-02-26T05:41:19;3.60;96.60
53748;DHT22;39655;53.210;5.768;2024-02-26T05:43:52;3.60;96.60
53748;DHT22;39655;53.210;5.768;2024-02-26T05:46:18;3.60;96.50
53748;DHT22;39655;53.210;5.768;2024-02-26T05:48:48;3.60;96.60
53748;DHT22;39655;53.210;5.768;2024-02-26T05:51:14;3.60;96.50
53748;DHT22;39655;53.210;5.768;2024-02-26T05:53:41;3.50;96.50
53748;DHT22;39655;53.210;5.768;2024-02-26T05:56:06;3.50;96.60
53748;DHT22;39655;53.210;5.768;2024-02-26T05:58:33;3.50;96.50
53748;DHT22;39655;53.210;5.768;2024-02-26T06:00:58;3.50;96.40
53748;DHT22;39655;53.210;5.768;2024-02-26T06:03:25;3.50;96.50
53748;DHT22;39655;53.210;5.768;2024-02-26T06:05:51;3.50;96.50
53748;DHT22;39655;53.210;5.768;2024-02-26T06:08:17;3.40;96.50
53748;DHT22;39655;53.210;5.768;2024-02-26T06:10:42;3.40;96.40
53748;DHT22;39655;53.210;5.768;2024-02-26T06:13:08;3.40;96.40
53748;DHT22;39655;53.210;5.768;2024-02-26T06:15:34;3.40;96.50
53748;DHT22;39655;53.210;5.768;2024-02-26T06:18:00;3.50;96.60
53748;DHT22;39655;53.210;5.768;2024-02-26T06:20:25;3.50;96.60
53748;DHT22;39655;53.210;5.768;2024-02-26T06:22:51;3.60;96.70
53748;DHT22;39655;53.210;5.768;2024-02-26T06:25:17;3.60;96.60
53748;DHT22;39655;53.210;5.768;2024-02-26T06:27:42;3.70;96.60
53748;DHT22;39655;53.210;5.768;2024-02-26T06:30:08;3.70;96.60
53748;DHT22;39655;53.210;5.768;2024-02-26T06:32:37;3.80;96.50
53748;DHT22;39655;53.210;5.768;2024-02-26T06:35:03;3.80;96.50
53748;DHT22;39655;53.210;5.768;2024-02-26T06:37:32;3.80;96.50
53748;DHT22;39655;53.210;5.768;2024-02-26T06:39:59;3.80;96.40
53748;DHT22;39655;53.210;5.768;2024-02-26T06:42:25;3.80;96.40
53748;DHT22;39655;53.210;5.768;2024-02-26T06:44:51;3.80;96.40
53748;DHT22;39655;53.210;5.768;2024-02-26T06:47:17;3.90;96.40
53748;DHT22;39655;53.210;5.768;2024-02-26T06:49:42;3.90;96.30
53748;DHT22;39655;53.210;5.768;2024-02-26T06:52:09;3.90;96.20
53748;DHT22;39655;53.210;5.768;2024-02-26T06:54:36;3.90;96.10
53748;DHT22;39655;53.210;5.768;2024-02-26T06:57:02;3.90;96.10
53748;DHT22;39655;53.210;5.768;2024-02-26T06:59:28;3.90;96.00
53748;DHT22;39655;53.210;5.768;2024-02-26T07:01:54;3.90;95.90
53748;DHT22;39655;53.210;5.768;2024-02-26T07:04:20;3.90;95.90
53748;DHT22;39655;53.210;5.768;2024-02-26T07:06:46;3.90;95.90
53748;DHT22;39655;53.210;5.768;2024-02-26T07:09:13;3.90;95.60
53748;DHT22;39655;53.210;5.768;2024-02-26T07:11:38;3.80;95.70
53748;DHT22;39655;53.210;5.768;2024-02-26T07:14:11;3.80;95.60
53748;DHT22;39655;53.210;5.768;2024-02-26T07:16:37;3.80;95.50
53748;DHT22;39655;53.210;5.768;2024-02-26T07:19:03;3.80;95.60
53748;DHT22;39655;53.210;5.768;2024-02-26T07:21:29;3.80;95.60
53748;DHT22;39655;53.210;5.768;2024-02-26T07:23:54;3.80;95.50
53748;DHT22;39655;53.210;5.768;2024-02-26T07:26:20;3.80;95.50
53748;DHT22;39655;53.210;5.768;2024-02-26T07:28:46;3.90;95.30
53748;DHT22;39655;53.210;5.768;2024-02-26T07:31:12;3.90;95.20
53748;DHT22;39655;53.210;5.768;2024-02-26T07:33:38;3.90;95.10
53748;DHT22;39655;53.210;5.768;2024-02-26T07:36:04;3.90;95.10
53748;DHT22;39655;53.210;5.768;2024-02-26T07:38:29;3.90;95.10
53748;DHT22;39655;53.210;5.768;2024-02-26T07:40:55;4.00;95.10
53748;DHT22;39655;53.210;5.768;2024-02-26T07:43:25;4.00;94.90
53748;DHT22;39655;53.210;5.768;2024-02-26T07:45:50;4.00;94.90
53748;DHT22;39655;53.210;5.768;2024-02-26T07:48:16;4.00;94.80
53748;DHT22;39655;53.210;5.768;2024-02-26T07:50:41;4.00;94.70
53748;DHT22;39655;53.210;5.768;2024-02-26T07:53:07;4.00;94.70
53748;DHT22;39655;53.210;5.768;2024-02-26T07:55:33;4.00;94.70
53748;DHT22;39655;53.210;5.768;2024-02-26T07:57:58;4.10;94.70
53748;DHT22;39655;53.210;5.768;2024-02-26T08:00:24;4.10;94.70
53748;DHT22;39655;53.210;5.768;2024-02-26T08:02:50;4.10;94.60
53748;DHT22;39655;53.210;5.768;2024-02-26T08:05:15;4.20;94.50
53748;DHT22;39655;53.210;5.768;2024-02-26T08:07:41;4.20;94.40
53748;DHT22;39655;53.210;5.768;2024-02-26T08:10:07;4.20;94.30
53748;DHT22;39655;53.210;5.768;2024-02-26T08:12:33;4.30;94.30
53748;DHT22;39655;53.210;5.768;2024-02-26T08:14:59;4.30;94.30
53748;DHT22;39655;53.210;5.768;2024-02-26T08:17:25;4.40;94.20
53748;DHT22;39655;53.210;5.768;2024-02-26T08:19:52;4.40;94.20
53748;DHT22;39655;53.210;5.768;2024-02-26T08:22:18;4.50;94.10
53748;DHT22;39655;53.210;5.768;2024-02-26T08:24:44;4.50;94.10
53748;DHT22;39655;53.210;5.768;2024-02-26T08:27:09;4.60;94.00
53748;DHT22;39655;53.210;5.768;2024-02-26T08:29:35;4.70;93.80
53748;DHT22;39655;53.210;5.768;2024-02-26T08:32:01;4.70;93.80
53748;DHT22;39655;53.210;5.768;2024-02-26T08:34:27;4.70;93.70
53748;DHT22;39655;53.210;5.768;2024-02-26T08:36:52;4.70;93.70
53748;DHT22;39655;53.210;5.768;2024-02-26T08:39:18;4.80;93.60
53748;DHT22;39655;53.210;5.768;2024-02-26T08:41:44;4.90;93.30
53748;DHT22;39655;53.210;5.768;2024-02-26T08:44:12;4.90;93.40
53748;DHT22;39655;53.210;5.768;2024-02-26T08:46:38;4.90;93.20
53748;DHT22;39655;53.210;5.768;2024-02-26T08:49:06;5.00;93.20
53748;DHT22;39655;53.210;5.768;2024-02-26T08:51:31;5.00;93.10
53748;DHT22;39655;53.210;5.768;2024-02-26T08:53:57;5.10;93.10
53748;DHT22;39655;53.210;5.768;2024-02-26T08:56:23;5.10;93.10
53748;DHT22;39655;53.210;5.768;2024-02-26T08:58:48;5.10;92.90
53748;DHT22;39655;53.210;5.768;2024-02-26T09:01:16;5.20;92.80
53748;DHT22;39655;53.210;5.768;2024-02-26T09:03:42;5.20;92.50
53748;DHT22;39655;53.210;5.768;2024-02-26T09:06:10;5.20;92.50
53748;DHT22;39655;53.210;5.768;2024-02-26T09:08:37;5.20;92.50
53748;DHT22;39655;53.210;5.768;2024-02-26T09:11:03;5.30;92.30
53748;DHT22;39655;53.210;5.768;2024-02-26T09:13:29;5.30;92.30
53748;DHT22;39655;53.210;5.768;2024-02-26T09:15:55;5.30;92.10
53748;DHT22;39655;53.210;5.768;2024-02-26T09:18:20;5.40;92.20
53748;DHT22;39655;53.210;5.768;2024-02-26T09:20:46;5.50;92.10
53748;DHT22;39655;53.210;5.768;2024-02-26T09:23:14;5.50;92.10
53748;DHT22;39655;53.210;5.768;2024-02-26T09:25:40;5.60;91.60
53748;DHT22;39655;53.210;5.768;2024-02-26T09:28:06;5.60;91.70
53748;DHT22;39655;53.210;5.768;2024-02-26T09:30:31;5.70;91.50
53748;DHT22;39655;53.210;5.768;2024-02-26T09:32:57;5.70;91.40
53748;DHT22;39655;53.210;5.768;2024-02-26T09:35:23;5.80;91.00
53748;DHT22;39655;53.210;5.768;2024-02-26T09:37:48;5.80;90.70
53748;DHT22;39655;53.210;5.768;2024-02-26T09:40:18;5.90;90.80
53748;DHT22;39655;53.210;5.768;2024-02-26T09:42:45;5.90;90.70
53748;DHT22;39655;53.210;5.768;2024-02-26T09:45:18;5.90;90.30
53748;DHT22;39655;53.210;5.768;2024-02-26T09:47:44;6.00;90.20
53748;DHT22;39655;53.210;5.768;2024-02-26T09:50:13;6.10;90.00
53748;DHT22;39655;53.210;5.768;2024-02-26T09:52:43;6.10;89.60
53748;DHT22;39655;53.210;5.768;2024-02-26T09:55:09;6.20;89.60
53748;DHT22;39655;53.210;5.768;2024-02-26T09:57:37;6.20;89.30
53748;DHT22;39655;53.210;5.768;2024-02-26T10:00:03;6.20;89.10
53748;DHT22;39655;53.210;5.768;2024-02-26T10:02:31;6.20;89.00
53748;DHT22;39655;53.210;5.768;2024-02-26T10:04:59;6.30;88.40
53748;DHT22;39655;53.210;5.768;2024-02-26T10:07:30;6.30;88.50
53748;DHT22;39655;53.210;5.768;2024-02-26T10:09:57;6.30;87.80
53748;DHT22;39655;53.210;5.768;2024-02-26T10:12:26;6.30;87.80
53748;DHT22;39655;53.210;5.768;2024-02-26T10:14:53;6.30;87.40
53748;DHT22;39655;53.210;5.768;2024-02-26T10:17:20;6.40;86.70
53748;DHT22;39655;53.210;5.768;2024-02-26T10:19:46;6.40;86.60
53748;DHT22;39655;53.210;5.768;2024-02-26T10:22:11;6.50;86.90
53748;DHT22;39655;53.210;5.768;2024-02-26T10:24:37;6.40;86.50
53748;DHT22;39655;53.210;5.768;2024-02-26T10:27:03;6.40;86.80
53748;DHT22;39655;53.210;5.768;2024-02-26T10:29:28;6.40;86.50
53748;DHT22;39655;53.210;5.768;2024-02-26T10:31:54;6.30;86.40
53748;DHT22;39655;53.210;5.768;2024-02-26T10:34:21;6.30;86.80
53748;DHT22;39655;53.210;5.768;2024-02-26T10:36:46;6.40;87.00
53748;DHT22;39655;53.210;5.768;2024-02-26T10:39:12;6.50;87.00
53748;DHT22;39655;53.210;5.768;2024-02-26T10:41:40;6.50;86.50
53748;DHT22;39655;53.210;5.768;2024-02-26T10:44:09;6.60;86.60
53748;DHT22;39655;53.210;5.768;2024-02-26T10:46:37;6.70;86.30
53748;DHT22;39655;53.210;5.768;2024-02-26T10:49:03;6.70;85.90
53748;DHT22;39655;53.210;5.768;2024-02-26T10:51:30;6.80;85.60
53748;DHT22;39655;53.210;5.768;2024-02-26T10:53:57;6.80;85.50
53748;DHT22;39655;53.210;5.768;2024-02-26T10:56:33;6.80;84.80
53748;DHT22;39655;53.210;5.768;2024-02-26T10:58:59;6.90;85.20
53748;DHT22;39655;53.210;5.768;2024-02-26T11:01:27;6.90;85.10
53748;DHT22;39655;53.210;5.768;2024-02-26T11:03:55;6.90;85.40
53748;DHT22;39655;53.210;5.768;2024-02-26T11:06:22;7.00;85.00
53748;DHT22;39655;53.210;5.768;2024-02-26T11:08:48;6.90;84.50
53748;DHT22;39655;53.210;5.768;2024-02-26T11:11:16;7.00;84.80
53748;DHT22;39655;53.210;5.768;2024-02-26T11:13:45;7.00;84.10
53748;DHT22;39655;53.210;5.768;2024-02-26T11:16:13;7.00;84.20
53748;DHT22;39655;53.210;5.768;2024-02-26T11:18:40;7.00;84.90
53748;DHT22;39655;53.210;5.768;2024-02-26T11:21:07;7.00;84.60
53748;DHT22;39655;53.210;5.768;2024-02-26T11:23:34;7.00;84.70
53748;DHT22;39655;53.210;5.768;2024-02-26T11:26:03;7.10;84.40
53748;DHT22;39655;53.210;5.768;2024-02-26T11:28:29;7.10;84.40
53748;DHT22;39655;53.210;5.768;2024-02-26T11:30:58;7.10;84.40
53748;DHT22;39655;53.210;5.768;2024-02-26T11:33:25;7.10;84.10
53748;DHT22;39655;53.210;5.768;2024-02-26T11:35:50;7.10;83.90
53748;DHT22;39655;53.210;5.768;2024-02-26T11:38:24;7.10;84.20
53748;DHT22;39655;53.210;5.768;2024-02-26T11:40:52;7.00;84.30
53748;DHT22;39655;53.210;5.768;2024-02-26T11:43:18;6.90;84.60
53748;DHT22;39655;53.210;5.768;2024-02-26T11:45:49;6.90;85.00
53748;DHT22;39655;53.210;5.768;2024-02-26T11:48:23;6.90;85.20
53748;DHT22;39655;53.210;5.768;2024-02-26T11:50:51;7.00;85.30
53748;DHT22;39655;53.210;5.768;2024-02-26T11:53:25;7.00;85.30
53748;DHT22;39655;53.210;5.768;2024-02-26T11:58:42;7.10;85.50
53748;DHT22;39655;53.210;5.768;2024-02-26T12:04:06;7.30;84.40
53748;DHT22;39655;53.210;5.768;2024-02-26T12:06:41;7.40;84.40
53748;DHT22;39655;53.210;5.768;2024-02-26T12:09:08;7.50;83.90
53748;DHT22;39655;53.210;5.768;2024-02-26T12:11:38;7.60;83.00
53748;DHT22;39655;53.210;5.768;2024-02-26T12:14:07;7.70;83.30
53748;DHT22;39655;53.210;5.768;2024-02-26T12:16:40;7.80;82.30
53748;DHT22;39655;53.210;5.768;2024-02-26T12:19:09;7.80;82.10
53748;DHT22;39655;53.210;5.768;2024-02-26T12:21:38;7.70;81.70
53748;DHT22;39655;53.210;5.768;2024-02-26T12:24:12;7.60;81.90
53748;DHT22;39655;53.210;5.768;2024-02-26T12:26:38;7.60;82.00
53748;DHT22;39655;53.210;5.768;2024-02-26T12:29:04;7.70;81.70
53748;DHT22;39655;53.210;5.768;2024-02-26T12:31:31;7.60;81.60
53748;DHT22;39655;53.210;5.768;2024-02-26T12:33:57;7.60;81.60
53748;DHT22;39655;53.210;5.768;2024-02-26T12:36:22;7.50;82.10
53748;DHT22;39655;53.210;5.768;2024-02-26T12:38:51;7.40;82.40
53748;DHT22;39655;53.210;5.768;2024-02-26T12:41:17;7.30;82.50
53748;DHT22;39655;53.210;5.768;2024-02-26T12:43:43;7.20;82.90
53748;DHT22;39655;53.210;5.768;2024-02-26T12:46:10;7.30;82.60
53748;DHT22;39655;53.210;5.768;2024-02-26T12:48:36;7.30;82.70
53748;DHT22;39655;53.210;5.768;2024-02-26T12:51:02;7.20;83.00
53748;DHT22;39655;53.210;5.768;2024-02-26T12:53:27;7.10;83.70
53748;DHT22;39655;53.210;5.768;2024-02-26T12:55:55;7.10;83.70
53748;DHT22;39655;53.210;5.768;2024-02-26T12:58:21;7.10;83.60
53748;DHT22;39655;53.210;5.768;2024-02-26T13:00:51;7.10;83.80
53748;DHT22;39655;53.210;5.768;2024-02-26T13:03:18;7.10;84.20
53748;DHT22;39655;53.210;5.768;2024-02-26T13:05:44;7.10;84.20
53748;DHT22;39655;53.210;5.768;2024-02-26T13:08:16;7.00;83.90
53748;DHT22;39655;53.210;5.768;2024-02-26T13:10:46;7.00;84.20
53748;DHT22;39655;53.210;5.768;2024-02-26T13:13:14;6.90;83.70
53748;DHT22;39655;53.210;5.768;2024-02-26T13:15:41;6.90;84.00
53748;DHT22;39655;53.210;5.768;2024-02-26T13:18:11;6.90;83.60
53748;DHT22;39655;53.210;5.768;2024-02-26T13:20:37;6.80;83.80
53748;DHT22;39655;53.210;5.768;2024-02-26T13:23:07;6.70;84.00
53748;DHT22;39655;53.210;5.768;2024-02-26T13:25:34;6.70;84.10
53748;DHT22;39655;53.210;5.768;2024-02-26T13:28:08;6.70;84.20
53748;DHT22;39655;53.210;5.768;2024-02-26T13:30:34;6.60;84.50
53748;DHT22;39655;53.210;5.768;2024-02-26T13:33:13;6.60;84.70
53748;DHT22;39655;53.210;5.768;2024-02-26T13:35:39;6.60;84.70
53748;DHT22;39655;53.210;5.768;2024-02-26T13:38:05;6.50;84.70
53748;DHT22;39655;53.210;5.768;2024-02-26T13:40:35;6.50;85.10
53748;DHT22;39655;53.210;5.768;2024-02-26T13:43:01;6.50;85.10
53748;DHT22;39655;53.210;5.768;2024-02-26T13:45:26;6.40;85.00
53748;DHT22;39655;53.210;5.768;2024-02-26T13:47:53;6.40;85.20
53748;DHT22;39655;53.210;5.768;2024-02-26T13:50:19;6.40;84.90
53748;DHT22;39655;53.210;5.768;2024-02-26T13:52:47;6.40;84.50
53748;DHT22;39655;53.210;5.768;2024-02-26T13:55:18;6.40;84.60
53748;DHT22;39655;53.210;5.768;2024-02-26T13:57:45;6.30;84.60
53748;DHT22;39655;53.210;5.768;2024-02-26T14:00:11;6.30;84.90
53748;DHT22;39655;53.210;5.768;2024-02-26T14:02:36;6.30;85.30
53748;DHT22;39655;53.210;5.768;2024-02-26T14:05:02;6.30;85.20
53748;DHT22;39655;53.210;5.768;2024-02-26T14:07:30;6.30;85.10
53748;DHT22;39655;53.210;5.768;2024-02-26T14:09:59;6.30;84.40
53748;DHT22;39655;53.210;5.768;2024-02-26T14:12:25;6.30;84.30
53748;DHT22;39655;53.210;5.768;2024-02-26T14:14:50;6.30;84.10
53748;DHT22;39655;53.210;5.768;2024-02-26T14:17:18;6.20;84.50
53748;DHT22;39655;53.210;5.768;2024-02-26T14:19:44;6.30;84.60
53748;DHT22;39655;53.210;5.768;2024-02-26T14:22:13;6.30;84.30
53748;DHT22;39655;53.210;5.768;2024-02-26T14:24:40;6.30;84.10
53748;DHT22;39655;53.210;5.768;2024-02-26T14:27:08;6.40;83.80
53748;DHT22;39655;53.210;5.768;2024-02-26T14:29:34;6.30;83.60
53748;DHT22;39655;53.210;5.768;2024-02-26T14:32:00;6.40;82.80
53748;DHT22;39655;53.210;5.768;2024-02-26T14:34:27;6.40;82.90
53748;DHT22;39655;53.210;5.768;2024-02-26T14:36:52;6.40;83.00
53748;DHT22;39655;53.210;5.768;2024-02-26T14:39:18;6.40;83.00
53748;DHT22;39655;53.210;5.768;2024-02-26T14:41:44;6.50;82.80
53748;DHT22;39655;53.210;5.768;2024-02-26T14:44:09;6.40;83.00
53748;DHT22;39655;53.210;5.768;2024-02-26T14:46:36;6.50;83.10
53748;DHT22;39655;53.210;5.768;2024-02-26T14:49:02;6.50;82.60
53748;DHT22;39655;53.210;5.768;2024-02-26T14:51:27;6.50;82.50
53748;DHT22;39655;53.210;5.768;2024-02-26T14:53:53;6.50;82.60
53748;DHT22;39655;53.210;5.768;2024-02-26T14:56:18;6.50;82.70
53748;DHT22;39655;53.210;5.768;2024-02-26T14:58:44;6.50;83.40
53748;DHT22;39655;53.210;5.768;2024-02-26T15:01:11;6.40;83.60
53748;DHT22;39655;53.210;5.768;2024-02-26T15:03:37;6.40;83.80
53748;DHT22;39655;53.210;5.768;2024-02-26T15:06:03;6.40;83.90
53748;DHT22;39655;53.210;5.768;2024-02-26T15:08:28;6.40;84.20
53748;DHT22;39655;53.210;5.768;2024-02-26T15:10:54;6.40;84.50
53748;DHT22;39655;53.210;5.768;2024-02-26T15:13:20;6.40;84.30
53748;DHT22;39655;53.210;5.768;2024-02-26T15:15:45;6.40;84.00
53748;DHT22;39655;53.210;5.768;2024-02-26T15:18:11;6.40;83.80
53748;DHT22;39655;53.210;5.768;2024-02-26T15:20:41;6.50;83.50
53748;DHT22;39655;53.210;5.768;2024-02-26T15:23:08;6.50;83.20
53748;DHT22;39655;53.210;5.768;2024-02-26T15:25:34;6.50;83.10
53748;DHT22;39655;53.210;5.768;2024-02-26T15:28:00;6.40;83.20
53748;DHT22;39655;53.210;5.768;2024-02-26T15:30:26;6.40;83.20
53748;DHT22;39655;53.210;5.768;2024-02-26T15:32:55;6.40;83.60
53748;DHT22;39655;53.210;5.768;2024-02-26T15:35:20;6.30;83.90
53748;DHT22;39655;53.210;5.768;2024-02-26T15:37:46;6.30;84.10
53748;DHT22;39655;53.210;5.768;2024-02-26T15:40:11;6.30;84.20
53748;DHT22;39655;53.210;5.768;2024-02-26T15:42:37;6.30;84.20
53748;DHT22;39655;53.210;5.768;2024-02-26T15:45:04;6.30;84.40
53748;DHT22;39655;53.210;5.768;2024-02-26T15:47:29;6.20;84.70